createdAt,value
2017-07-20T00:00:17.738Z,1001.94
2017-07-20T00:01:19.065Z,1001.95
2017-07-20T00:02:20.314Z,1001.96
2017-07-20T00:03:21.553Z,1002.06
2017-07-20T00:04:22.801Z,1002.1
2017-07-20T00:05:24.034Z,1002.12
2017-07-20T00:06:25.338Z,1002.13
2017-07-20T00:07:26.612Z,1002.11
2017-07-20T00:08:27.852Z,1002.11
2017-07-20T00:09:29.091Z,1002.06
2017-07-20T00:10:30.327Z,1002.12
2017-07-20T00:11:31.658Z,1002.06
2017-07-20T00:12:32.948Z,1002.07
2017-07-20T00:13:34.188Z,1002.06
2017-07-20T00:14:35.450Z,1002.03
2017-07-20T00:15:36.744Z,1001.99
2017-07-20T00:16:37.991Z,1001.97
2017-07-20T00:17:39.254Z,1001.97
2017-07-20T00:18:40.491Z,1001.97
2017-07-20T00:19:41.728Z,1001.98
2017-07-20T00:20:42.968Z,1002.03
2017-07-20T00:21:44.206Z,1002.04
2017-07-20T00:22:45.435Z,1002.05
2017-07-20T00:23:46.670Z,1002.03
2017-07-20T00:24:47.931Z,1002.01
2017-07-20T00:25:49.238Z,1001.93
2017-07-20T00:26:50.477Z,1001.86
2017-07-20T00:27:51.747Z,1001.76
2017-07-20T00:28:52.959Z,1001.74
2017-07-20T00:29:54.199Z,1001.67
2017-07-20T00:30:55.486Z,1001.66
2017-07-20T00:31:56.772Z,1001.58
2017-07-20T00:32:57.950Z,1001.55
2017-07-20T00:33:59.237Z,1001.54
2017-07-20T00:35:00.454Z,1001.51
2017-07-20T00:36:01.702Z,1001.56
2017-07-20T00:37:02.939Z,1001.66
2017-07-20T00:38:04.194Z,1001.75
2017-07-20T00:39:05.435Z,1001.77
2017-07-20T00:40:06.773Z,1001.78
2017-07-20T00:41:08.009Z,1001.78
2017-07-20T00:42:09.260Z,1001.68
2017-07-20T00:43:10.485Z,1001.62
2017-07-20T00:44:11.726Z,1001.61
2017-07-20T00:45:12.978Z,1001.59
2017-07-20T00:46:14.216Z,1001.63
2017-07-20T00:47:15.464Z,1001.67
2017-07-20T00:48:16.713Z,1001.62
2017-07-20T00:49:17.973Z,1001.61
2017-07-20T00:50:19.222Z,1001.62
2017-07-20T00:51:20.459Z,1001.63
2017-07-20T00:52:21.719Z,1001.62
2017-07-20T00:53:23.019Z,1001.63
2017-07-20T00:54:24.266Z,1001.68
2017-07-20T00:55:25.502Z,1001.62
2017-07-20T00:56:26.743Z,1001.64
2017-07-20T00:57:28.059Z,1001.63
2017-07-20T00:58:29.305Z,1001.59
2017-07-20T00:59:30.542Z,1001.62
2017-07-20T01:00:31.777Z,1001.7
2017-07-20T01:01:33.052Z,1001.74
2017-07-20T01:02:34.279Z,1001.77
2017-07-20T01:03:35.518Z,1001.81
2017-07-20T01:04:36.788Z,1001.85
2017-07-20T01:05:38.014Z,1001.81
2017-07-20T01:06:39.314Z,1001.7
2017-07-20T01:07:40.556Z,1001.65
2017-07-20T01:08:41.806Z,1001.59
2017-07-20T01:09:43.049Z,1001.53
2017-07-20T01:10:44.319Z,1001.45
2017-07-20T01:11:45.668Z,1001.33
2017-07-20T01:12:46.907Z,1001.23
2017-07-20T01:13:48.176Z,1001.15
2017-07-20T01:14:49.400Z,1001.11
2017-07-20T01:15:50.647Z,1001.05
2017-07-20T01:16:51.896Z,1001.12
2017-07-20T01:17:53.242Z,1001.15
2017-07-20T01:18:54.482Z,1001.19
2017-07-20T01:19:55.727Z,1001.2
2017-07-20T01:20:56.985Z,1001.16
2017-07-20T01:21:58.215Z,1001.21
2017-07-20T01:22:59.541Z,1001.09
2017-07-20T01:24:00.821Z,1001.05
2017-07-20T01:25:02.068Z,1001.05
2017-07-20T01:26:03.291Z,1001.03
2017-07-20T01:27:04.532Z,1001.01
2017-07-20T01:28:05.771Z,1001.03
2017-07-20T01:29:07.083Z,1001.06
2017-07-20T01:30:08.318Z,1001.05
2017-07-20T01:31:09.592Z,1001.15
2017-07-20T01:32:10.828Z,1001.1
2017-07-20T01:33:12.064Z,1001.06
2017-07-20T01:34:13.344Z,1001.1
2017-07-20T01:35:14.584Z,1001.07
2017-07-20T01:36:15.815Z,1001.02
2017-07-20T01:37:17.063Z,1000.93
2017-07-20T01:38:18.345Z,1000.92
2017-07-20T01:39:19.563Z,1000.92
2017-07-20T01:40:20.797Z,1000.86
2017-07-20T01:41:22.028Z,1000.83
2017-07-20T01:42:23.317Z,1000.84
2017-07-20T01:43:24.683Z,1000.77
2017-07-20T01:44:25.808Z,1000.8
2017-07-20T01:45:27.245Z,1000.76
2017-07-20T01:46:28.480Z,1000.8
2017-07-20T01:47:29.873Z,1000.86
2017-07-20T01:48:31.105Z,1000.95
2017-07-20T01:49:32.349Z,1001.02
2017-07-20T01:50:33.568Z,1001.14
2017-07-20T01:51:34.810Z,1001.18
2017-07-20T01:52:36.049Z,1001.14
2017-07-20T01:53:37.288Z,1001.02
2017-07-20T01:54:38.522Z,1000.85
2017-07-20T01:55:39.784Z,1000.68
2017-07-20T01:56:41.024Z,1000.6
2017-07-20T01:57:42.271Z,1000.53
2017-07-20T01:58:43.524Z,1000.53
2017-07-20T01:59:44.761Z,1000.5
2017-07-20T02:00:46.036Z,1000.48
2017-07-20T02:01:47.431Z,1000.45
2017-07-20T02:02:48.638Z,1000.54
2017-07-20T02:03:49.886Z,1000.6
2017-07-20T02:04:51.124Z,1000.66
2017-07-20T02:05:52.361Z,1000.66
2017-07-20T02:06:53.604Z,1000.72
2017-07-20T02:07:54.942Z,1000.67
2017-07-20T02:08:56.073Z,1000.63
2017-07-20T02:09:57.391Z,1000.67
2017-07-20T02:10:58.708Z,1000.68
2017-07-20T02:11:59.946Z,1000.67
2017-07-20T02:13:01.191Z,1000.69
2017-07-20T02:14:02.418Z,1000.75
2017-07-20T02:15:03.677Z,1000.75
2017-07-20T02:16:04.975Z,1000.77
2017-07-20T02:17:06.212Z,1000.7
2017-07-20T02:18:07.453Z,1000.66
2017-07-20T02:19:08.697Z,1000.6
2017-07-20T02:20:09.930Z,1000.51
2017-07-20T02:21:11.164Z,1000.51
2017-07-20T02:22:12.439Z,1000.49
2017-07-20T02:23:13.651Z,1000.5
2017-07-20T02:24:15.005Z,1000.44
2017-07-20T02:25:16.243Z,1000.46
2017-07-20T02:26:17.486Z,1000.5
2017-07-20T02:27:18.726Z,1000.54
2017-07-20T02:28:20.070Z,1000.53
2017-07-20T02:29:21.313Z,1000.54
2017-07-20T02:30:22.552Z,1000.45
2017-07-20T02:31:23.793Z,1000.5
2017-07-20T02:32:25.029Z,1000.48
2017-07-20T02:33:26.277Z,1000.46
2017-07-20T02:34:27.570Z,1000.41
2017-07-20T02:35:28.913Z,1000.4
2017-07-20T02:36:30.167Z,1000.36
2017-07-20T02:37:31.421Z,1000.33
2017-07-20T02:38:32.655Z,1000.39
2017-07-20T02:39:33.898Z,1000.35
2017-07-20T02:40:35.232Z,1000.37
2017-07-20T02:41:36.549Z,1000.35
2017-07-20T02:42:37.790Z,1000.34
2017-07-20T02:43:39.036Z,1000.33
2017-07-20T02:44:40.273Z,1000.33
2017-07-20T02:45:41.585Z,1000.32
2017-07-20T02:46:42.823Z,1000.27
2017-07-20T02:47:44.082Z,1000.28
2017-07-20T02:48:45.326Z,1000.33
2017-07-20T02:49:46.562Z,1000.33
2017-07-20T02:50:47.924Z,1000.32
2017-07-20T02:51:49.439Z,1000.34
2017-07-20T02:52:50.680Z,1000.31
2017-07-20T02:53:51.918Z,1000.3
2017-07-20T02:54:53.156Z,1000.3
2017-07-20T02:55:54.393Z,1000.27
2017-07-20T02:56:55.879Z,1000.15
2017-07-20T02:57:57.105Z,1000.06
2017-07-20T02:58:58.365Z,1000.03
2017-07-20T02:59:59.599Z,1000.01
2017-07-20T03:01:00.849Z,1000.09
2017-07-20T03:02:02.087Z,1000.11
2017-07-20T03:03:03.347Z,1000.14
2017-07-20T03:04:04.577Z,1000.15
2017-07-20T03:05:05.804Z,1000.13
2017-07-20T03:06:07.045Z,1000.06
2017-07-20T03:07:08.294Z,1000.09
2017-07-20T03:08:09.528Z,1000.03
2017-07-20T03:09:10.770Z,1000.05
2017-07-20T03:10:12.039Z,1000.03
2017-07-20T03:11:13.374Z,1000.02
2017-07-20T03:12:14.606Z,1000.03
2017-07-20T03:13:15.851Z,1000.03
2017-07-20T03:14:17.086Z,1000.08
2017-07-20T03:15:18.327Z,1000.06
2017-07-20T03:16:19.578Z,1000.03
2017-07-20T03:17:20.821Z,1000.06
2017-07-20T03:18:22.188Z,1000.08
2017-07-20T03:19:23.424Z,1000.02
2017-07-20T03:20:24.692Z,1000.04
2017-07-20T03:21:25.949Z,1000.01
2017-07-20T03:22:27.271Z,1000.05
2017-07-20T03:23:28.477Z,1000.08
2017-07-20T03:24:29.724Z,1000.13
2017-07-20T03:25:30.965Z,1000.11
2017-07-20T03:26:32.206Z,1000.09
2017-07-20T03:27:33.445Z,1000.02
2017-07-20T03:28:34.686Z,1000.01
2017-07-20T03:29:36.028Z,999.99
2017-07-20T03:30:37.302Z,999.95
2017-07-20T03:31:38.532Z,999.93
2017-07-20T03:32:39.774Z,999.98
2017-07-20T03:33:41.012Z,999.96
2017-07-20T03:34:42.243Z,999.91
2017-07-20T03:35:43.577Z,999.91
2017-07-20T03:36:44.837Z,999.88
2017-07-20T03:37:46.064Z,999.82
2017-07-20T03:38:47.306Z,999.78
2017-07-20T03:39:48.544Z,999.79
2017-07-20T03:40:49.780Z,999.76
2017-07-20T03:41:51.021Z,999.7
2017-07-20T03:42:52.256Z,999.65
2017-07-20T03:43:53.632Z,999.67
2017-07-20T03:44:54.869Z,999.62
2017-07-20T03:45:56.117Z,999.68
2017-07-20T03:46:57.355Z,999.76
2017-07-20T03:47:58.595Z,999.8
2017-07-20T03:48:59.845Z,999.83
2017-07-20T03:50:01.166Z,999.86
2017-07-20T03:51:02.413Z,999.87
2017-07-20T03:52:03.651Z,999.85
2017-07-20T03:53:04.879Z,999.85
2017-07-20T03:54:06.147Z,999.84
2017-07-20T03:55:07.459Z,999.81
2017-07-20T03:56:08.768Z,999.87
2017-07-20T03:57:09.945Z,999.92
2017-07-20T03:58:11.230Z,999.9
2017-07-20T03:59:12.473Z,999.9
2017-07-20T04:00:13.706Z,999.91
2017-07-20T04:01:14.971Z,999.95
2017-07-20T04:02:16.196Z,999.87
2017-07-20T04:03:17.603Z,999.89
2017-07-20T04:04:18.929Z,999.89
2017-07-20T04:05:20.150Z,999.95
2017-07-20T04:06:21.386Z,999.99
2017-07-20T04:07:22.628Z,1000.02
2017-07-20T04:08:23.923Z,1000.09
2017-07-20T04:09:25.165Z,1000.13
2017-07-20T04:10:26.402Z,1000.23
2017-07-20T04:11:27.666Z,1000.26
2017-07-20T04:12:28.881Z,1000.3
2017-07-20T04:13:30.118Z,1000.33
2017-07-20T04:14:31.419Z,1000.39
2017-07-20T04:15:32.717Z,1000.42
2017-07-20T04:16:33.992Z,1000.46
2017-07-20T04:17:35.206Z,1000.5
2017-07-20T04:18:36.441Z,1000.53
2017-07-20T04:19:37.724Z,1000.54
2017-07-20T04:20:38.989Z,1000.51
2017-07-20T04:21:40.222Z,1000.53
2017-07-20T04:22:41.601Z,1000.57
2017-07-20T04:23:42.813Z,1000.77
2017-07-20T04:24:44.051Z,1000.92
2017-07-20T04:25:45.346Z,1001.02
2017-07-20T04:26:46.574Z,1001.05
2017-07-20T04:27:47.878Z,1001.03
2017-07-20T04:28:49.117Z,1001.08
2017-07-20T04:29:50.352Z,1001.14
2017-07-20T04:30:51.597Z,1001.11
2017-07-20T04:31:52.824Z,1001.1
2017-07-20T04:32:54.069Z,1001.11
2017-07-20T04:33:55.318Z,1001.08
2017-07-20T04:34:56.569Z,1001.01
2017-07-20T04:35:57.797Z,1000.98
2017-07-20T04:36:59.043Z,1000.99
2017-07-20T04:38:00.277Z,1000.96
2017-07-20T04:39:01.555Z,1000.89
2017-07-20T04:40:02.773Z,1000.95
2017-07-20T04:41:04.001Z,1001.03
2017-07-20T04:42:05.262Z,1001.1
2017-07-20T04:43:06.503Z,1001.1
2017-07-20T04:44:07.752Z,1000.95
2017-07-20T04:45:09.009Z,1000.85
2017-07-20T04:46:10.240Z,1000.82
2017-07-20T04:47:11.520Z,1000.88
2017-07-20T04:48:12.788Z,1000.93
2017-07-20T04:49:14.023Z,1000.92
2017-07-20T04:50:15.273Z,1000.9
2017-07-20T04:51:16.509Z,1000.9
2017-07-20T04:52:17.775Z,1000.87
2017-07-20T04:53:19.130Z,1000.87
2017-07-20T04:54:20.369Z,1000.91
2017-07-20T04:55:21.611Z,1000.96
2017-07-20T04:56:22.869Z,1001.01
2017-07-20T04:57:24.102Z,1001.04
2017-07-20T04:58:25.379Z,1001.12
2017-07-20T04:59:26.624Z,1001.19
2017-07-20T05:00:27.943Z,1001.28
2017-07-20T05:01:29.224Z,1001.34
2017-07-20T05:02:30.455Z,1001.36
2017-07-20T05:03:31.694Z,1001.42
2017-07-20T05:04:32.938Z,1001.52
2017-07-20T05:05:34.182Z,1001.65
2017-07-20T05:06:35.431Z,1001.66
2017-07-20T05:07:36.676Z,1001.65
2017-07-20T05:08:37.927Z,1001.62
2017-07-20T05:09:39.166Z,1001.63
2017-07-20T05:10:40.410Z,1001.59
2017-07-20T05:11:41.782Z,1001.56
2017-07-20T05:12:43.113Z,1001.48
2017-07-20T05:13:44.342Z,1001.51
2017-07-20T05:14:45.584Z,1001.52
2017-07-20T05:15:46.818Z,1001.52
2017-07-20T05:16:48.067Z,1001.52
2017-07-20T05:17:49.356Z,1001.53
2017-07-20T05:18:50.597Z,1001.58
2017-07-20T05:19:51.836Z,1001.66
2017-07-20T05:20:53.080Z,1001.74
2017-07-20T05:21:54.315Z,1001.74
2017-07-20T05:22:55.552Z,1001.81
2017-07-20T05:23:56.791Z,1001.85
2017-07-20T05:24:58.074Z,1001.86
2017-07-20T05:25:59.373Z,1001.87
2017-07-20T05:27:00.623Z,1001.86
2017-07-20T05:28:01.871Z,1001.84
2017-07-20T05:29:03.098Z,1001.87
2017-07-20T05:30:04.351Z,1001.91
2017-07-20T05:31:05.656Z,1001.98
2017-07-20T05:32:06.905Z,1002
2017-07-20T05:33:08.152Z,1001.98
2017-07-20T05:34:09.392Z,1002.04
2017-07-20T05:35:10.633Z,1002.03
2017-07-20T05:36:11.879Z,1002.04
2017-07-20T05:37:13.149Z,1002
2017-07-20T05:38:14.365Z,1001.97
2017-07-20T05:39:15.704Z,1001.9
2017-07-20T05:40:16.956Z,1001.85
2017-07-20T05:41:18.207Z,1001.85
2017-07-20T05:42:19.433Z,1001.89
2017-07-20T05:43:20.676Z,1001.87
2017-07-20T05:44:22.092Z,1001.83
2017-07-20T05:45:23.372Z,1001.8
2017-07-20T05:46:24.613Z,1001.8
2017-07-20T05:47:25.840Z,1001.83
2017-07-20T05:48:27.081Z,1001.82
2017-07-20T05:49:28.377Z,1001.84
2017-07-20T05:50:29.659Z,1001.85
2017-07-20T05:51:30.954Z,1001.89
2017-07-20T05:52:32.196Z,1001.9
2017-07-20T05:53:33.472Z,1001.93
2017-07-20T05:54:34.724Z,1001.95
2017-07-20T05:55:35.983Z,1001.97
2017-07-20T05:56:37.214Z,1001.96
2017-07-20T05:57:38.451Z,1001.99
2017-07-20T05:58:39.687Z,1001.99
2017-07-20T05:59:41.292Z,1002
2017-07-20T06:00:42.518Z,1001.98
2017-07-20T06:01:43.765Z,1001.95
2017-07-20T06:02:45.010Z,1001.98
2017-07-20T06:03:46.256Z,1001.95
2017-07-20T06:04:47.501Z,1001.93
2017-07-20T06:05:48.725Z,1001.92
2017-07-20T06:06:50.040Z,1001.99
2017-07-20T06:07:51.371Z,1001.94
2017-07-20T06:08:52.608Z,1001.98
2017-07-20T06:09:53.861Z,1001.97
2017-07-20T06:10:55.298Z,1001.96
2017-07-20T06:11:56.535Z,1001.96
2017-07-20T06:12:57.887Z,1001.96
2017-07-20T06:13:59.125Z,1001.92
2017-07-20T06:15:00.366Z,1001.95
2017-07-20T06:16:01.652Z,1001.9
2017-07-20T06:17:02.898Z,1001.89
2017-07-20T06:18:04.126Z,1001.81
2017-07-20T06:19:05.382Z,1001.85
2017-07-20T06:20:06.608Z,1001.78
2017-07-20T06:21:08.009Z,1001.76
2017-07-20T06:22:09.267Z,1001.69
2017-07-20T06:23:10.502Z,1001.66
2017-07-20T06:24:11.745Z,1001.61
2017-07-20T06:25:13.026Z,1001.55
2017-07-20T06:26:14.366Z,1001.49
2017-07-20T06:27:15.641Z,1001.44
2017-07-20T06:28:16.901Z,1001.42
2017-07-20T06:29:18.188Z,1001.4
2017-07-20T06:30:19.430Z,1001.4
2017-07-20T06:31:20.690Z,1001.4
2017-07-20T06:32:21.910Z,1001.39
2017-07-20T06:33:23.301Z,1001.35
2017-07-20T06:34:24.528Z,1001.33
2017-07-20T06:35:25.773Z,1001.37
2017-07-20T06:36:27.025Z,1001.41
2017-07-20T06:37:28.269Z,1001.33
2017-07-20T06:38:29.644Z,1001.34
2017-07-20T06:39:30.909Z,1001.3
2017-07-20T06:40:32.157Z,1001.25
2017-07-20T06:41:33.407Z,1001.26
2017-07-20T06:42:34.656Z,1001.27
2017-07-20T06:43:35.994Z,1001.28
2017-07-20T06:44:37.254Z,1001.26
2017-07-20T06:45:38.494Z,1001.24
2017-07-20T06:46:39.742Z,1001.24
2017-07-20T06:47:40.989Z,1001.22
2017-07-20T06:48:42.232Z,1001.2
2017-07-20T06:49:43.469Z,1001.23
2017-07-20T06:50:44.706Z,1001.22
2017-07-20T06:51:46.008Z,1001.15
2017-07-20T06:52:47.248Z,1001.16
2017-07-20T06:53:48.499Z,1001.17
2017-07-20T06:54:49.734Z,1001.21
2017-07-20T06:55:50.995Z,1001.25
2017-07-20T06:56:52.242Z,1001.24
2017-07-20T06:57:53.521Z,1001.28
2017-07-20T06:58:55.723Z,1001.29
2017-07-20T06:59:57.089Z,1001.27
2017-07-20T07:00:58.308Z,1001.25
2017-07-20T07:01:59.627Z,1001.23
2017-07-20T07:03:00.864Z,1001.25
2017-07-20T07:04:02.117Z,1001.24
2017-07-20T07:05:03.354Z,1001.25
2017-07-20T07:06:04.596Z,1001.24
2017-07-20T07:07:05.841Z,1001.17
2017-07-20T07:08:07.081Z,1001.2
2017-07-20T07:09:08.322Z,1001.2
2017-07-20T07:10:09.576Z,1001.18
2017-07-20T07:11:10.798Z,1001.16
2017-07-20T07:12:12.097Z,1001.17
2017-07-20T07:13:13.342Z,1001.21
2017-07-20T07:14:14.593Z,1001.23
2017-07-20T07:15:15.822Z,1001.16
2017-07-20T07:16:17.094Z,1001.09
2017-07-20T07:17:18.337Z,1001.04
2017-07-20T07:18:19.576Z,1001.01
2017-07-20T07:19:20.820Z,1001.02
2017-07-20T07:20:22.060Z,1001.01
2017-07-20T07:21:23.359Z,1001.06
2017-07-20T07:22:24.600Z,1001.11
2017-07-20T07:23:25.837Z,1001.12
2017-07-20T07:24:27.076Z,1001.08
2017-07-20T07:25:28.325Z,1001.13
2017-07-20T07:26:29.626Z,1001.08
2017-07-20T07:27:30.877Z,1001.07
2017-07-20T07:28:32.119Z,1001.1
2017-07-20T07:29:33.355Z,1001.13
2017-07-20T07:30:34.620Z,1001.1
2017-07-20T07:31:35.860Z,1001.08
2017-07-20T07:32:37.163Z,1001.12
2017-07-20T07:33:38.408Z,1001.14
2017-07-20T07:34:39.648Z,1001.14
2017-07-20T07:35:40.964Z,1001.16
2017-07-20T07:36:42.204Z,1001.17
2017-07-20T07:37:43.448Z,1001.18
2017-07-20T07:38:44.689Z,1001.17
2017-07-20T07:39:46.063Z,1001.23
2017-07-20T07:40:47.299Z,1001.24
2017-07-20T07:41:48.562Z,1001.2
2017-07-20T07:42:49.790Z,1001.22
2017-07-20T07:43:51.032Z,1001.18
2017-07-20T07:44:52.264Z,1001.2
2017-07-20T07:45:53.568Z,1001.23
2017-07-20T07:46:54.843Z,1001.26
2017-07-20T07:47:56.077Z,1001.22
2017-07-20T07:48:57.321Z,1001.2
2017-07-20T07:49:58.560Z,1001.2
2017-07-20T07:50:59.838Z,1001.25
2017-07-20T07:52:01.094Z,1001.33
2017-07-20T07:53:02.330Z,1001.26
2017-07-20T07:54:03.727Z,1001.31
2017-07-20T07:55:05.068Z,1001.23
2017-07-20T07:56:06.293Z,1001.19
2017-07-20T07:57:07.645Z,1001.24
2017-07-20T07:58:08.908Z,1001.17
2017-07-20T07:59:10.125Z,1001.13
2017-07-20T08:00:11.429Z,1001.13
2017-07-20T08:01:12.687Z,1001.16
2017-07-20T08:02:13.909Z,1001.1
2017-07-20T08:03:15.155Z,1001.11
2017-07-20T08:04:16.434Z,1001.13
2017-07-20T08:05:17.677Z,1001.12
2017-07-20T08:06:18.979Z,1001.13
2017-07-20T08:07:20.211Z,1001.16
2017-07-20T08:08:21.454Z,1001.15
2017-07-20T08:09:22.693Z,1001.15
2017-07-20T08:10:23.930Z,1001.16
2017-07-20T08:11:25.201Z,1001.18
2017-07-20T08:12:26.461Z,1001.14
2017-07-20T08:13:27.721Z,1001.14
2017-07-20T08:14:28.963Z,1001.16
2017-07-20T08:15:30.195Z,1001.18
2017-07-20T08:16:31.518Z,1001.17
2017-07-20T08:17:32.788Z,1001.2
2017-07-20T08:18:34.013Z,1001.2
2017-07-20T08:19:35.260Z,1001.15
2017-07-20T08:20:36.499Z,1001.2
2017-07-20T08:21:37.752Z,1001.23
2017-07-20T08:22:39.010Z,1001.2
2017-07-20T08:23:40.497Z,1001.21
2017-07-20T08:24:41.767Z,1001.25
2017-07-20T08:25:43.011Z,1001.23
2017-07-20T08:26:44.248Z,1001.24
2017-07-20T08:27:45.494Z,1001.19
2017-07-20T08:28:46.738Z,1001.16
2017-07-20T08:29:48.014Z,1001.14
2017-07-20T08:30:49.323Z,1001.17
2017-07-20T08:31:50.557Z,1001.21
2017-07-20T08:32:51.799Z,1001.19
2017-07-20T08:33:53.048Z,1001.22
2017-07-20T08:34:54.301Z,1001.21
2017-07-20T08:35:55.576Z,1001.23
2017-07-20T08:36:56.847Z,1001.25
2017-07-20T08:37:58.088Z,1001.28
2017-07-20T08:38:59.387Z,1001.29
2017-07-20T08:40:00.614Z,1001.29
2017-07-20T08:41:01.879Z,1001.23
2017-07-20T08:42:03.198Z,1001.21
2017-07-20T08:43:04.369Z,1001.29
2017-07-20T08:44:05.597Z,1001.25
2017-07-20T08:45:06.916Z,1001.24
2017-07-20T08:46:08.186Z,1001.25
2017-07-20T08:47:09.416Z,1001.21
2017-07-20T08:48:10.638Z,1001.22
2017-07-20T08:49:11.880Z,1001.25
2017-07-20T08:50:13.168Z,1001.27
2017-07-20T08:51:14.410Z,1001.23
2017-07-20T08:52:15.653Z,1001.27
2017-07-20T08:53:16.889Z,1001.26
2017-07-20T08:54:18.197Z,1001.29
2017-07-20T08:55:19.532Z,1001.32
2017-07-20T08:56:20.789Z,1001.28
2017-07-20T08:57:22.024Z,1001.27
2017-07-20T08:58:23.265Z,1001.21
2017-07-20T08:59:24.501Z,1001.28
2017-07-20T09:00:25.751Z,1001.3
2017-07-20T09:01:26.995Z,1001.34
2017-07-20T09:02:28.241Z,1001.39
2017-07-20T09:03:29.562Z,1001.37
2017-07-20T09:04:30.789Z,1001.4
2017-07-20T09:05:32.035Z,1001.38
2017-07-20T09:06:33.283Z,1001.37
2017-07-20T09:07:34.523Z,1001.38
2017-07-20T09:08:35.763Z,1001.36
2017-07-20T09:09:37.007Z,1001.42
2017-07-20T09:10:38.246Z,1001.41
2017-07-20T09:11:39.490Z,1001.49
2017-07-20T09:12:40.738Z,1001.42
2017-07-20T09:13:41.990Z,1001.44
2017-07-20T09:14:43.284Z,1001.42
2017-07-20T09:15:44.516Z,1001.5
2017-07-20T09:16:45.798Z,1001.55
2017-07-20T09:17:47.060Z,1001.56
2017-07-20T09:18:48.283Z,1001.43
2017-07-20T09:19:49.525Z,1001.42
2017-07-20T09:20:50.784Z,1001.44
2017-07-20T09:21:52.021Z,1001.49
2017-07-20T09:22:53.336Z,1001.52
2017-07-20T09:23:54.569Z,1001.59
2017-07-20T09:24:55.822Z,1001.52
2017-07-20T09:25:57.068Z,1001.48
2017-07-20T09:26:58.318Z,1001.47
2017-07-20T09:27:59.633Z,1001.5
2017-07-20T09:29:00.904Z,1001.43
2017-07-20T09:30:02.152Z,1001.49
2017-07-20T09:31:03.391Z,1001.58
2017-07-20T09:32:04.634Z,1001.49
2017-07-20T09:33:05.897Z,1001.55
2017-07-20T09:34:07.149Z,1001.49
2017-07-20T09:35:08.368Z,1002.21
2017-07-20T09:36:09.708Z,1002.2
2017-07-20T09:37:11.038Z,1002.67
2017-07-20T09:38:12.286Z,1001.9
2017-07-20T09:39:13.538Z,1001.64
2017-07-20T09:40:14.777Z,1001.44
2017-07-20T09:41:16.050Z,1001.63
2017-07-20T09:42:17.297Z,1001.8
2017-07-20T09:43:18.544Z,1002.16
2017-07-20T09:44:19.796Z,1001.59
2017-07-20T09:45:21.036Z,1003.28
2017-07-20T09:46:22.393Z,1003.33
2017-07-20T09:47:23.695Z,1001.75
2017-07-20T09:48:24.948Z,1003.24
2017-07-20T09:49:26.164Z,1002.75
2017-07-20T09:50:27.405Z,1004.01
2017-07-20T09:51:28.657Z,1003.74
2017-07-20T09:52:29.920Z,1003.4
2017-07-20T09:53:31.175Z,1002.8
2017-07-20T09:54:32.418Z,1002.18
2017-07-20T09:55:33.668Z,1001.65
2017-07-20T09:56:34.916Z,1003.44
2017-07-20T09:57:36.171Z,1003.52
2017-07-20T09:58:37.438Z,1001.39
2017-07-20T09:59:38.675Z,1001.34
2017-07-20T10:00:39.934Z,1001.3
2017-07-20T10:01:41.184Z,1001.37
2017-07-20T10:02:42.450Z,1001.33
2017-07-20T10:03:43.714Z,1001.43
2017-07-20T10:04:44.926Z,1002.09
2017-07-20T10:05:46.187Z,1001.96
2017-07-20T10:06:47.510Z,1001.53
2017-07-20T10:07:48.819Z,1001.69
2017-07-20T10:08:50.066Z,1001.48
2017-07-20T10:09:51.318Z,1001.8
2017-07-20T10:10:52.582Z,1002.24
2017-07-20T10:11:53.827Z,1003.85
2017-07-20T10:12:55.074Z,1003.28
2017-07-20T10:13:56.320Z,1001.45
2017-07-20T10:14:57.572Z,1001.21
2017-07-20T10:15:58.821Z,1001.52
2017-07-20T10:17:00.087Z,1001.36
2017-07-20T10:18:01.440Z,1001.32
2017-07-20T10:19:02.594Z,1001.35
2017-07-20T10:20:03.947Z,1001.3
2017-07-20T10:21:05.209Z,1001.32
2017-07-20T10:22:06.461Z,1001.34
2017-07-20T10:23:07.709Z,1001.28
2017-07-20T10:24:08.963Z,1001.37
2017-07-20T10:25:10.266Z,1001.43
2017-07-20T10:26:11.521Z,1001.55
2017-07-20T10:27:12.880Z,1001.43
2017-07-20T10:28:14.129Z,1001.44
2017-07-20T10:29:15.371Z,1001.35
2017-07-20T10:30:16.670Z,1001.31
2017-07-20T10:31:18.073Z,1001.3
2017-07-20T10:32:19.314Z,1001.26
2017-07-20T10:33:20.574Z,1001.33
2017-07-20T10:34:21.821Z,1001.33
2017-07-20T10:35:23.067Z,1001.32
2017-07-20T10:36:24.418Z,1001.45
2017-07-20T10:37:25.683Z,1001.42
2017-07-20T10:38:26.950Z,1001.38
2017-07-20T10:39:28.227Z,1001.53
2017-07-20T10:40:29.472Z,1001.44
2017-07-20T10:41:30.721Z,1001.32
2017-07-20T10:42:31.969Z,1001.27
2017-07-20T10:43:33.225Z,1001.26
2017-07-20T10:44:34.487Z,1001.21
2017-07-20T10:45:35.717Z,1001.23
2017-07-20T10:46:36.978Z,1001.22
2017-07-20T10:47:38.227Z,1001.19
2017-07-20T10:48:39.499Z,1001.2
2017-07-20T10:49:40.759Z,1001.16
2017-07-20T10:50:41.996Z,1001.34
2017-07-20T10:51:43.261Z,1001.37
2017-07-20T10:52:44.487Z,1001.48
2017-07-20T10:53:45.725Z,1001.53
2017-07-20T10:54:46.972Z,1001.43
2017-07-20T10:55:48.229Z,1001.46
2017-07-20T10:56:49.612Z,1001.4
2017-07-20T10:57:50.871Z,1001.33
2017-07-20T10:58:52.113Z,1001.31
2017-07-20T10:59:53.364Z,1001.31
2017-07-20T11:00:54.612Z,1001.4
2017-07-20T11:01:55.881Z,1001.26
2017-07-20T11:02:57.189Z,1001.26
2017-07-20T11:03:58.434Z,1001.29
2017-07-20T11:04:59.685Z,1001.27
2017-07-20T11:06:00.937Z,1001.3
2017-07-20T11:07:02.288Z,1001.37
2017-07-20T11:08:03.665Z,1001.39
2017-07-20T11:09:04.915Z,1001.43
2017-07-20T11:10:06.162Z,1001.31
2017-07-20T11:11:07.419Z,1001.19
2017-07-20T11:12:08.862Z,1001.16
2017-07-20T11:13:10.103Z,1001.16
2017-07-20T11:14:11.363Z,1001.07
2017-07-20T11:15:12.699Z,1001.09
2017-07-20T11:16:13.951Z,1001.21
2017-07-20T11:17:15.308Z,1001.2
2017-07-20T11:18:16.555Z,1001.24
2017-07-20T11:19:17.849Z,1001.25
2017-07-20T11:20:19.214Z,1001.28
2017-07-20T11:21:20.481Z,1001.21
2017-07-20T11:22:21.706Z,1001.28
2017-07-20T11:23:22.979Z,1001.26
2017-07-20T11:24:24.229Z,1001.2
2017-07-20T11:25:25.570Z,1001.24
2017-07-20T11:26:26.870Z,1001.23
2017-07-20T11:27:28.107Z,1001.22
2017-07-20T11:28:29.374Z,1001.29
2017-07-20T11:29:30.624Z,1001.21
2017-07-20T11:30:31.896Z,1001.14
2017-07-20T11:31:33.303Z,1001.19
2017-07-20T11:32:34.534Z,1001.1
2017-07-20T11:33:35.774Z,1001.11
2017-07-20T11:34:37.024Z,1001.06
2017-07-20T11:35:38.271Z,1001.09
2017-07-20T11:36:39.533Z,1001.12
2017-07-20T11:37:40.780Z,1001.08
2017-07-20T11:38:42.145Z,1001.07
2017-07-20T11:39:43.475Z,1001.11
2017-07-20T11:40:44.728Z,1001.12
2017-07-20T11:41:45.995Z,1001.12
2017-07-20T11:42:47.232Z,1001.2
2017-07-20T11:43:48.570Z,1001.2
2017-07-20T11:44:49.830Z,1001.16
2017-07-20T11:45:51.192Z,1001.22
2017-07-20T11:46:52.428Z,1001.22
2017-07-20T11:47:53.674Z,1001.22
2017-07-20T11:48:54.936Z,1001.19
2017-07-20T11:49:56.184Z,1001.21
2017-07-20T11:50:57.443Z,1001.22
2017-07-20T11:51:58.712Z,1001.22
2017-07-20T11:52:59.960Z,1001.28
2017-07-20T11:54:01.193Z,1001.28
2017-07-20T11:55:02.458Z,1001.29
2017-07-20T11:56:03.722Z,1001.23
2017-07-20T11:57:04.993Z,1001.24
2017-07-20T11:58:06.230Z,1001.21
2017-07-20T11:59:07.488Z,1001.26
2017-07-20T12:00:08.736Z,1001.27
2017-07-20T12:01:09.995Z,1001.23
2017-07-20T12:02:11.232Z,1001.24
2017-07-20T12:03:12.489Z,1001.2
2017-07-20T12:04:13.823Z,1001.25
2017-07-20T12:05:15.070Z,1001.21
2017-07-20T12:06:16.322Z,1001.16
2017-07-20T12:07:17.566Z,1001.11
2017-07-20T12:08:18.816Z,1001.13
2017-07-20T12:09:20.175Z,1001.03
2017-07-20T12:10:21.476Z,1001.09
2017-07-20T12:11:22.733Z,1001.05
2017-07-20T12:12:23.974Z,1001.06
2017-07-20T12:13:25.265Z,1001.11
2017-07-20T12:14:26.620Z,1001.09
2017-07-20T12:15:27.878Z,1001.17
2017-07-20T12:16:29.137Z,1001.09
2017-07-20T12:17:30.393Z,1001.18
2017-07-20T12:18:31.630Z,1001.16
2017-07-20T12:19:32.891Z,1001.1
2017-07-20T12:20:34.130Z,1001.09
2017-07-20T12:21:35.417Z,1001.06
2017-07-20T12:22:36.672Z,1001.04
2017-07-20T12:23:37.914Z,1001.01
2017-07-20T12:24:39.161Z,1000.94